createdAt,value
2022-10-23T00:01:24.037Z,98584.54
2022-10-23T00:06:30.630Z,98588.60
2022-10-23T00:11:37.622Z,98594.09
2022-10-23T00:16:43.789Z,98597.06
2022-10-23T00:21:50.024Z,98600.52
2022-10-23T00:26:56.290Z,98604.36
2022-10-23T00:32:02.692Z,98608.52
2022-10-23T00:37:08.950Z,98604.27
2022-10-23T00:42:18.320Z,98601.61
2022-10-23T00:47:24.525Z,98604.83
2022-10-23T00:52:31.528Z,98605.30
2022-10-23T00:57:37.732Z,98606.15
2022-10-23T01:02:44.375Z,98601.85
2022-10-23T01:07:54.340Z,98606.48
2022-10-23T01:13:05.142Z,98601.53
2022-10-23T01:18:14.640Z,98615.42
2022-10-23T01:23:28.990Z,98620.36
2022-10-23T01:28:38.033Z,98630.72
2022-10-23T01:33:46.509Z,98624.83
2022-10-23T01:38:55.523Z,98619.97
2022-10-23T01:44:05.015Z,98616.04
2022-10-23T01:49:13.011Z,98626.40
2022-10-23T01:54:21.141Z,98623.66
2022-10-23T01:59:28.630Z,98627.34
2022-10-23T02:04:35.990Z,98627.97
2022-10-23T02:09:42.179Z,98624.75
2022-10-23T02:14:54.164Z,98623.10
2022-10-23T02:20:03.363Z,98623.33
2022-10-23T02:25:12.011Z,98622.87
2022-10-23T02:30:19.509Z,98629.77
2022-10-23T02:35:26.844Z,98638.79
2022-10-23T02:40:37.409Z,98642.62
2022-10-23T02:45:48.684Z,98649.44
2022-10-23T02:51:00.989Z,98655.57
2022-10-23T02:56:11.069Z,98657.23
2022-10-23T03:01:17.966Z,98662.94
2022-10-23T03:06:24.584Z,98658.15
2022-10-23T03:11:30.811Z,98651.23
2022-10-23T03:16:37.058Z,98646.77
2022-10-23T03:21:43.410Z,98655.23
2022-10-23T03:26:49.573Z,98656.11
2022-10-23T03:31:56.107Z,98659.87
2022-10-23T03:37:02.269Z,98666.14
2022-10-23T03:42:08.580Z,98666.63
2022-10-23T03:47:14.631Z,98670.70
2022-10-23T03:52:20.688Z,98670.06
2022-10-23T03:57:26.972Z,98669.42
2022-10-23T04:02:33.448Z,98670.15
2022-10-23T04:07:39.552Z,98677.67
2022-10-23T04:12:46.204Z,98677.42
2022-10-23T04:17:52.486Z,98669.05
2022-10-23T04:22:58.714Z,98662.15
2022-10-23T04:28:05.050Z,98652.88
2022-10-23T04:33:11.130Z,98650.21
2022-10-23T04:38:17.403Z,98654.21
2022-10-23T04:43:23.670Z,98659.65
2022-10-23T04:48:29.852Z,98652.58
2022-10-23T04:53:35.886Z,98653.20
2022-10-23T04:58:42.179Z,98653.90
2022-10-23T05:03:48.340Z,98659.39
2022-10-23T05:08:54.767Z,98654.20
2022-10-23T05:14:00.883Z,98652.23
2022-10-23T05:19:09.419Z,98659.52
2022-10-23T05:24:15.703Z,98663.59
2022-10-23T05:29:21.950Z,98656.30
2022-10-23T05:34:29.560Z,98662.44
2022-10-23T05:39:35.762Z,98670.75
2022-10-23T05:44:42.063Z,98680.64
2022-10-23T05:49:48.370Z,98682.27
2022-10-23T05:54:54.540Z,98684.77
2022-10-23T06:00:00.724Z,98692.78
2022-10-23T06:05:07.350Z,98699.15
2022-10-23T06:10:13.711Z,98707.70
2022-10-23T06:15:19.812Z,98717.10
2022-10-23T06:20:27.954Z,98718.66
2022-10-23T06:25:35.097Z,98722.83
2022-10-23T06:30:42.201Z,98727.69
2022-10-23T06:35:48.451Z,98731.60
2022-10-23T06:40:55.733Z,98737.41
2022-10-23T06:46:03.560Z,98738.04
2022-10-23T06:51:11.371Z,98744.23
2022-10-23T06:56:17.809Z,98745.72
2022-10-23T07:01:24.382Z,98742.96
2022-10-23T07:06:30.760Z,98749.72
2022-10-23T07:11:37.342Z,98737.86
2022-10-23T07:16:43.931Z,98732.09
2022-10-23T07:21:50.433Z,98738.89
2022-10-23T07:26:57.072Z,98741.48
2022-10-23T07:32:04.846Z,98737.89
2022-10-23T07:37:11.210Z,98745.34
2022-10-23T07:42:17.713Z,98752.39
2022-10-23T07:47:24.070Z,98750.91
2022-10-23T07:52:33.476Z,98739.77
2022-10-23T07:57:42.130Z,98733.67
2022-10-23T08:02:48.321Z,98737.91
2022-10-23T08:07:54.761Z,98747.56
2022-10-23T08:13:01.421Z,98753.54
2022-10-23T08:18:08.009Z,98756.20
2022-10-23T08:23:16.470Z,98757.06
2022-10-23T08:28:22.800Z,98758.77
2022-10-23T08:33:29.430Z,98752.74
2022-10-23T08:38:36.564Z,98755.88
2022-10-23T08:43:45.432Z,98761.38
2022-10-23T08:48:53.941Z,98762.64
2022-10-23T08:54:04.530Z,98766.40
2022-10-23T08:59:20.420Z,98765.77
2022-10-23T09:04:26.950Z,98774.95
2022-10-23T09:09:45.719Z,98781.30
2022-10-23T09:14:56.365Z,98784.13
2022-10-23T09:20:07.893Z,98793.30
2022-10-23T09:25:19.388Z,98802.64
2022-10-23T09:30:29.910Z,98802.71
2022-10-23T09:35:36.400Z,98805.39
2022-10-23T09:40:43.900Z,98805.20
2022-10-23T09:45:58.211Z,98798.40
2022-10-23T09:51:05.369Z,98800.84
2022-10-23T09:56:26.340Z,98817.55
2022-10-23T10:01:34.191Z,98820.83
2022-10-23T10:11:50.489Z,98807.17
2022-10-23T10:17:00.390Z,98793.68
2022-10-23T10:22:09.470Z,98783.57
2022-10-23T10:27:22.541Z,98782.80
2022-10-23T10:32:35.272Z,98784.21
2022-10-23T10:37:49.787Z,98763.36
2022-10-23T10:43:10.842Z,98753.64
2022-10-23T10:48:29.920Z,98744.94
2022-10-23T10:53:45.104Z,98737.80
2022-10-23T10:58:53.250Z,98731.37
2022-10-23T11:04:05.393Z,98729.25
2022-10-23T11:09:20.703Z,98715.38
2022-10-23T11:14:29.359Z,98701.09
2022-10-23T11:19:37.780Z,98691.52
2022-10-23T11:24:53.404Z,98693.27
2022-10-23T11:30:20.111Z,98688.15
2022-10-23T11:35:36.329Z,98678.66
2022-10-23T11:40:47.125Z,98673.41
2022-10-23T11:45:53.720Z,98670.98
2022-10-23T11:51:01.549Z,98667.67
2022-10-23T11:56:24.165Z,98651.75
2022-10-23T12:01:36.233Z,98639.13
2022-10-23T12:06:43.800Z,98628.14
2022-10-23T12:11:51.720Z,98616.45
2022-10-23T12:16:58.646Z,98609.86
2022-10-23T12:22:05.410Z,98611.89
2022-10-23T12:27:21.712Z,98617.78
2022-10-23T12:32:32.871Z,98615.27
2022-10-23T12:37:54.954Z,98618.89
2022-10-23T12:43:01.998Z,98613.95
2022-10-23T12:48:19.832Z,98615.98
2022-10-23T12:53:26.180Z,98599.91
2022-10-23T12:58:33.110Z,98597.14
2022-10-23T13:03:40.224Z,98591.98
2022-10-23T13:08:48.599Z,98592.13
2022-10-23T13:13:55.283Z,98592.61
2022-10-23T13:19:01.831Z,98584.67
2022-10-23T13:24:21.049Z,98592.45
2022-10-23T13:29:29.393Z,98586.88
2022-10-23T13:34:36.260Z,98582.71
2022-10-23T13:39:42.621Z,98573.48
2022-10-23T13:44:48.941Z,98567.66
2022-10-23T13:49:55.301Z,98567.75
2022-10-23T13:55:01.706Z,98564.77
2022-10-23T14:00:09.400Z,98560.06
2022-10-23T14:05:15.690Z,98557.30
2022-10-23T14:10:24.548Z,98550.33
2022-10-23T14:15:33.723Z,98544.28
2022-10-23T14:20:41.372Z,98544.30
2022-10-23T14:25:47.911Z,98550.56
2022-10-23T14:30:54.484Z,98553.00
2022-10-23T14:36:00.809Z,98551.04
2022-10-23T14:41:11.122Z,98549.86
2022-10-23T14:46:18.310Z,98544.38
2022-10-23T14:51:25.400Z,98528.77
2022-10-23T14:56:32.330Z,98535.82
2022-10-23T15:01:43.690Z,98531.90
2022-10-23T15:06:54.017Z,98525.31
2022-10-23T15:12:00.360Z,98523.73
2022-10-23T15:17:06.730Z,98526.17
2022-10-23T15:22:12.910Z,98520.91
2022-10-23T15:27:19.914Z,98522.56
2022-10-23T15:32:26.414Z,98522.25
2022-10-23T15:37:32.993Z,98523.02
2022-10-23T15:42:39.648Z,98525.38
2022-10-23T15:47:46.399Z,98522.09
2022-10-23T15:52:53.670Z,98523.89
2022-10-23T15:58:04.454Z,98521.16
2022-10-23T16:03:11.040Z,98526.96
2022-10-23T16:08:17.450Z,98530.17
2022-10-23T16:13:23.904Z,98534.09
2022-10-23T16:18:30.329Z,98539.19
2022-10-23T16:23:36.801Z,98541.46
2022-10-23T16:28:44.211Z,98549.46
2022-10-23T16:33:51.243Z,98557.39
2022-10-23T16:38:57.711Z,98560.28
2022-10-23T16:44:04.241Z,98557.71
2022-10-23T16:49:10.880Z,98559.96
2022-10-23T16:54:17.993Z,98567.27
2022-10-23T16:59:24.642Z,98566.86
2022-10-23T17:04:31.163Z,98564.61
2022-10-23T17:09:38.699Z,98573.15
2022-10-23T17:14:45.117Z,98580.36
2022-10-23T17:19:51.500Z,98585.86
2022-10-23T17:24:57.922Z,98576.83
2022-10-23T17:30:04.661Z,98573.09
2022-10-23T17:35:13.270Z,98571.34
2022-10-23T17:40:24.783Z,98572.77
2022-10-23T17:45:31.370Z,98563.27
2022-10-23T17:50:37.760Z,98554.73
2022-10-23T17:55:43.940Z,98553.08
2022-10-23T18:00:50.171Z,98546.65
2022-10-23T18:05:56.541Z,98538.64
2022-10-23T18:11:04.820Z,98541.55
2022-10-23T18:16:12.910Z,98534.64
2022-10-23T18:21:19.931Z,98534.57
2022-10-23T18:26:27.320Z,98535.20
2022-10-23T18:31:33.581Z,98525.30
2022-10-23T18:36:41.126Z,98524.60
2022-10-23T18:41:47.709Z,98520.20
2022-10-23T18:46:53.979Z,98516.36
2022-10-23T18:52:00.151Z,98513.17
2022-10-23T18:57:06.340Z,98522.02
2022-10-23T19:02:13.677Z,98515.91
2022-10-23T19:07:19.900Z,98503.13
2022-10-23T19:12:26.250Z,98495.90
2022-10-23T19:17:33.951Z,98499.52
2022-10-23T19:22:41.357Z,98506.17
2022-10-23T19:27:48.019Z,98512.05
2022-10-23T19:32:54.334Z,98506.02
2022-10-23T19:38:00.589Z,98502.25
2022-10-23T19:43:06.696Z,98509.86
2022-10-23T19:48:12.950Z,98511.67
2022-10-23T19:53:19.030Z,98511.42
2022-10-23T19:58:25.159Z,98510.96
2022-10-23T20:03:31.219Z,98507.05
2022-10-23T20:08:37.550Z,98484.38
2022-10-23T20:13:44.030Z,98475.45
2022-10-23T20:18:50.190Z,98470.96
2022-10-23T20:23:58.109Z,98470.73
2022-10-23T20:29:04.494Z,98467.98
2022-10-23T20:34:11.010Z,98467.29
2022-10-23T20:39:18.318Z,98456.46
2022-10-23T20:44:25.364Z,98452.39
2022-10-23T20:49:31.680Z,98444.70
2022-10-23T20:54:38.610Z,98441.09
2022-10-23T20:59:45.084Z,98445.63
2022-10-23T21:04:52.030Z,98450.59
2022-10-23T21:09:58.210Z,98450.89
2022-10-23T21:15:04.260Z,98443.59
2022-10-23T21:20:11.220Z,98435.67
2022-10-23T21:25:17.464Z,98436.92
2022-10-23T21:30:23.641Z,98438.73
2022-10-23T21:35:30.266Z,98439.60
2022-10-23T21:40:36.408Z,98449.16
2022-10-23T21:45:42.631Z,98439.99
2022-10-23T21:55:56.599Z,98420.15
2022-10-23T22:01:03.641Z,98415.45
2022-10-23T22:06:10.564Z,98406.04
2022-10-23T22:11:17.361Z,98397.40
2022-10-23T22:16:24.142Z,98397.41
2022-10-23T22:21:31.149Z,98389.17
2022-10-23T22:26:38.023Z,98391.29
2022-10-23T22:31:47.295Z,98394.90
2022-10-23T22:36:56.729Z,98380.94
2022-10-23T22:42:02.900Z,98379.69
2022-10-23T22:47:09.114Z,98386.59
2022-10-23T22:52:15.160Z,98385.18
2022-10-23T22:57:21.294Z,98387.05
2022-10-23T23:02:27.500Z,98387.21
2022-10-23T23:07:33.729Z,98378.90
2022-10-23T23:12:39.920Z,98369.42
2022-10-23T23:17:46.417Z,98366.83
2022-10-23T23:22:52.762Z,98365.20
2022-10-23T23:27:59.050Z,98358.05
2022-10-23T23:33:05.424Z,98361.89
2022-10-23T23:38:12.224Z,98356.32
2022-10-23T23:43:18.300Z,98358.75
2022-10-23T23:48:24.612Z,98362.60
2022-10-23T23:53:30.739Z,98357.27
2022-10-23T23:58:36.821Z,98346.06
